createdAt,value
2023-08-15T00:00:42.589Z,97809.00
2023-08-15T00:04:43.755Z,97802.00
2023-08-15T00:08:45.347Z,97800.00
2023-08-15T00:12:46.863Z,97796.00
2023-08-15T00:16:48.003Z,97785.00
2023-08-15T00:20:49.182Z,97778.00
2023-08-15T00:24:50.249Z,97788.00
2023-08-15T00:28:52.002Z,97776.00
2023-08-15T00:32:53.242Z,97778.00
2023-08-15T00:36:54.462Z,97784.00
2023-08-15T00:40:55.769Z,97782.00
2023-08-15T00:44:57.646Z,97776.00
2023-08-15T00:49:00.374Z,97766.00
2023-08-15T00:53:03.450Z,97752.00
2023-08-15T00:57:06.776Z,97741.00
2023-08-15T01:01:11.073Z,97737.00
2023-08-15T01:05:16.540Z,97734.00
2023-08-15T01:09:17.572Z,97742.00
2023-08-15T01:13:31.493Z,97735.00
2023-08-15T01:17:36.345Z,97741.00
2023-08-15T01:21:41.185Z,97742.00
2023-08-15T01:25:43.915Z,97747.00
2023-08-15T01:29:44.904Z,97743.00
2023-08-15T01:34:01.999Z,97743.00
2023-08-15T01:38:09.964Z,97744.00
2023-08-15T01:42:11.529Z,97735.00
2023-08-15T01:46:14.057Z,97741.00
2023-08-15T01:50:15.086Z,97745.00
2023-08-15T01:54:16.354Z,97736.00
2023-08-15T01:58:17.512Z,97730.00
2023-08-15T02:02:18.699Z,97712.00
2023-08-15T02:06:19.688Z,97726.00
2023-08-15T02:10:21.237Z,97727.00
2023-08-15T02:14:22.429Z,97717.00
2023-08-15T02:18:26.820Z,97727.00
2023-08-15T02:22:27.962Z,97728.00
2023-08-15T02:26:29.115Z,97732.00
2023-08-15T02:30:32.254Z,97729.00
2023-08-15T02:34:33.536Z,97739.00
2023-08-15T02:38:35.476Z,97740.00
2023-08-15T02:42:36.652Z,97743.00
2023-08-15T02:46:38.193Z,97746.00
2023-08-15T02:50:39.308Z,97743.00
2023-08-15T02:54:40.466Z,97754.00
2023-08-15T02:58:42.180Z,97761.00
2023-08-15T03:02:43.463Z,97781.00
2023-08-15T03:06:44.792Z,97790.00
2023-08-15T03:10:45.952Z,97786.00
2023-08-15T03:14:47.120Z,97790.00
2023-08-15T03:18:48.488Z,97801.00
2023-08-15T03:22:49.511Z,97818.00
2023-08-15T03:26:50.796Z,97825.00
2023-08-15T03:30:52.477Z,97829.00
2023-08-15T03:34:53.750Z,97827.00
2023-08-15T03:38:55.121Z,97844.00
2023-08-15T03:42:56.299Z,97854.00
2023-08-15T03:46:57.413Z,97785.00
2023-08-15T03:51:00.758Z,97716.00
2023-08-15T03:55:02.416Z,97732.00
2023-08-15T03:59:03.662Z,97765.00
2023-08-15T04:03:05.237Z,97788.00
2023-08-15T04:07:06.403Z,97810.00
2023-08-15T04:11:07.554Z,97825.00
2023-08-15T04:15:09.142Z,97858.00
2023-08-15T04:19:10.166Z,97891.00
2023-08-15T04:23:11.423Z,97883.00
2023-08-15T04:27:12.987Z,97863.00
2023-08-15T04:31:14.583Z,97862.00
2023-08-15T04:35:15.980Z,97897.00
2023-08-15T04:39:18.956Z,97889.00
2023-08-15T04:43:20.380Z,97891.00
2023-08-15T04:47:21.690Z,97916.00
2023-08-15T04:51:23.073Z,97941.00
2023-08-15T04:55:24.358Z,97948.00
2023-08-15T04:59:25.667Z,97952.00
2023-08-15T05:03:26.849Z,97912.00
2023-08-15T05:07:27.833Z,97865.00
2023-08-15T05:11:29.029Z,97821.00
2023-08-15T05:15:30.328Z,97819.00
2023-08-15T05:19:31.548Z,97817.00
2023-08-15T05:23:32.636Z,97801.00
2023-08-15T05:27:33.979Z,97792.00
2023-08-15T05:31:35.163Z,97793.00
2023-08-15T05:35:36.203Z,97798.00
2023-08-15T05:39:37.479Z,97799.00
2023-08-15T05:43:39.186Z,97786.00
2023-08-15T05:47:40.629Z,97787.00
2023-08-15T05:51:41.920Z,97801.00
2023-08-15T05:55:45.970Z,97810.00
2023-08-15T05:59:47.177Z,97803.00
2023-08-15T06:03:53.009Z,97813.00
2023-08-15T06:07:51.249Z,97819.00
2023-08-15T06:11:52.461Z,97841.00
2023-08-15T06:15:53.519Z,97844.00
2023-08-15T06:19:54.934Z,97849.00
2023-08-15T06:23:55.989Z,97848.00
2023-08-15T06:27:57.179Z,97868.00
2023-08-15T06:31:59.210Z,97879.00
2023-08-15T06:36:00.379Z,97901.00
2023-08-15T06:40:01.664Z,97897.00
2023-08-15T06:44:02.987Z,97890.00
2023-08-15T06:48:06.022Z,97892.00
2023-08-15T06:52:10.200Z,97886.00
2023-08-15T06:56:11.777Z,97876.00
2023-08-15T07:00:14.025Z,97871.00
2023-08-15T07:04:15.058Z,97873.00
2023-08-15T07:08:16.766Z,97874.00
2023-08-15T07:12:19.062Z,97866.00
2023-08-15T07:16:21.825Z,97875.00
2023-08-15T07:20:23.054Z,97881.00
2023-08-15T07:24:24.099Z,97898.00
2023-08-15T07:28:25.297Z,97875.00
2023-08-15T07:32:29.562Z,97875.00
2023-08-15T07:36:30.802Z,97879.00
2023-08-15T07:40:32.092Z,97895.00
2023-08-15T07:44:33.162Z,97897.00
2023-08-15T07:48:34.243Z,97887.00
2023-08-15T07:52:35.484Z,97905.00
2023-08-15T07:56:36.767Z,97905.00
2023-08-15T08:00:37.848Z,97901.00
2023-08-15T08:04:40.955Z,97908.00
2023-08-15T08:08:42.401Z,97908.00
2023-08-15T08:12:43.718Z,97911.00
2023-08-15T08:16:45.287Z,97904.00
2023-08-15T08:20:46.663Z,97931.00
2023-08-15T08:24:52.863Z,97922.00
2023-08-15T08:28:54.147Z,97930.00
2023-08-15T08:32:55.281Z,97924.00
2023-08-15T08:36:56.516Z,97940.00
2023-08-15T08:40:58.210Z,97927.00
2023-08-15T08:45:00.787Z,97928.00
2023-08-15T08:49:04.048Z,97930.00
2023-08-15T08:53:05.651Z,97925.00
2023-08-15T08:57:07.859Z,97925.00
2023-08-15T09:01:10.170Z,97920.00
2023-08-15T09:05:12.742Z,97920.00
2023-08-15T09:09:13.828Z,97939.00
2023-08-15T09:13:18.870Z,97945.00
2023-08-15T09:17:24.213Z,97945.00
2023-08-15T09:21:27.832Z,97955.00
2023-08-15T09:25:30.525Z,97940.00
2023-08-15T09:29:34.645Z,97939.00
2023-08-15T09:33:38.210Z,97953.00
2023-08-15T09:37:44.935Z,97931.00
2023-08-15T09:41:48.798Z,97935.00
2023-08-15T09:45:50.058Z,97941.00
2023-08-15T09:49:52.848Z,97948.00
2023-08-15T09:53:54.457Z,97956.00
2023-08-15T09:57:55.639Z,97951.00
2023-08-15T10:01:58.985Z,97955.00
2023-08-15T10:06:01.846Z,97964.00
2023-08-15T10:10:04.573Z,97956.00
2023-08-15T10:14:07.794Z,97960.00
2023-08-15T10:18:11.277Z,97964.00
2023-08-15T10:22:16.197Z,97968.00
2023-08-15T10:26:17.932Z,97957.00
2023-08-15T10:30:35.382Z,97961.00
2023-08-15T10:34:36.638Z,97968.00
2023-08-15T10:38:44.162Z,97979.00
2023-08-15T10:43:01.641Z,97975.00
2023-08-15T10:47:06.830Z,97973.00
2023-08-15T10:51:26.116Z,97969.00
2023-08-15T10:55:28.799Z,97973.00
2023-08-15T10:59:30.090Z,97993.00
2023-08-15T11:03:32.606Z,98005.00
2023-08-15T11:07:33.742Z,98000.00
2023-08-15T11:11:34.830Z,98005.00
2023-08-15T11:15:36.054Z,98016.00
2023-08-15T11:19:37.306Z,98028.00
2023-08-15T11:23:39.464Z,98042.00
2023-08-15T11:27:41.749Z,98048.00
2023-08-15T11:31:43.192Z,98062.00
2023-08-15T11:35:47.262Z,98058.00
2023-08-15T11:39:53.079Z,98044.00
2023-08-15T11:43:54.317Z,98027.00
2023-08-15T11:47:58.508Z,97997.00
2023-08-15T11:52:03.742Z,97998.00
2023-08-15T11:56:04.803Z,98005.00
2023-08-15T12:00:06.830Z,98014.00
2023-08-15T12:04:08.189Z,98028.00
2023-08-15T12:08:09.640Z,98021.00
2023-08-15T12:12:20.122Z,98015.00
2023-08-15T12:16:21.759Z,98001.00
2023-08-15T12:20:22.968Z,97999.00
2023-08-15T12:24:24.114Z,98006.00
2023-08-15T12:28:25.352Z,98014.00
2023-08-15T12:32:28.408Z,98021.00
2023-08-15T12:36:29.715Z,98018.00
2023-08-15T12:40:31.851Z,98027.00
2023-08-15T12:44:32.999Z,98030.00
2023-08-15T12:48:34.007Z,98028.00
2023-08-15T12:52:35.342Z,98022.00
2023-08-15T12:56:36.829Z,98010.00
2023-08-15T13:00:40.096Z,98032.00
2023-08-15T13:04:41.480Z,98036.00
2023-08-15T13:08:42.489Z,98030.00
2023-08-15T13:12:43.626Z,98016.00
2023-08-15T13:16:44.790Z,98027.00
2023-08-15T13:20:46.101Z,98036.00
2023-08-15T13:24:47.410Z,98044.00
2023-08-15T13:28:49.236Z,98061.00
2023-08-15T13:32:50.444Z,98058.00
2023-08-15T13:36:51.569Z,98044.00
2023-08-15T13:40:52.634Z,98039.00
2023-08-15T13:44:53.784Z,98045.00
2023-08-15T13:48:55.078Z,98043.00
2023-08-15T13:52:56.114Z,98033.00
2023-08-15T13:56:57.447Z,98026.00
2023-08-15T14:00:58.679Z,98042.00
2023-08-15T14:04:59.836Z,98016.00
2023-08-15T14:09:00.919Z,98021.00
2023-08-15T14:13:02.532Z,98022.00
2023-08-15T14:17:03.654Z,98024.00
2023-08-15T14:21:04.826Z,98002.00
2023-08-15T14:25:07.289Z,97996.00
2023-08-15T14:29:08.330Z,98004.00
2023-08-15T14:33:10.254Z,97998.00
2023-08-15T14:37:11.382Z,97995.00
2023-08-15T14:41:12.420Z,98003.00
2023-08-15T14:45:13.586Z,98005.00
2023-08-15T14:49:15.103Z,97999.00
2023-08-15T14:53:17.009Z,98000.00
2023-08-15T14:57:18.640Z,98003.00
2023-08-15T15:01:20.294Z,98003.00
2023-08-15T15:05:23.203Z,98000.00
2023-08-15T15:09:24.382Z,98000.00
2023-08-15T15:13:25.441Z,98007.00
2023-08-15T15:17:27.008Z,98005.00
2023-08-15T15:21:28.290Z,98007.00
2023-08-15T15:25:29.461Z,97999.00
2023-08-15T15:29:30.980Z,97995.00
2023-08-15T15:33:32.042Z,97987.00
2023-08-15T15:37:33.293Z,97997.00
2023-08-15T15:41:34.369Z,97991.00
2023-08-15T15:45:36.989Z,97996.00
2023-08-15T15:49:38.070Z,97998.00
2023-08-15T15:53:39.164Z,98014.00
2023-08-15T15:57:40.284Z,98023.00
2023-08-15T16:01:41.474Z,98029.00
2023-08-15T16:05:42.632Z,98032.00
2023-08-15T16:09:45.433Z,98037.00
2023-08-15T16:13:46.491Z,98047.00
2023-08-15T16:17:47.639Z,98044.00
2023-08-15T16:21:49.014Z,98045.00
2023-08-15T16:25:50.840Z,98054.00
2023-08-15T16:29:54.533Z,98057.00
2023-08-15T16:33:55.077Z,98049.00
2023-08-15T16:37:56.143Z,98047.00
2023-08-15T16:41:57.216Z,98040.00
2023-08-15T16:45:58.268Z,98037.00
2023-08-15T16:50:00.193Z,98027.00
2023-08-15T16:54:01.374Z,98033.00
2023-08-15T16:58:02.551Z,98032.00
2023-08-15T17:02:03.655Z,98028.00
2023-08-15T17:06:05.054Z,98030.00
2023-08-15T17:10:06.659Z,98036.00
2023-08-15T17:14:07.757Z,97997.00
2023-08-15T17:18:08.965Z,98045.00
2023-08-15T17:22:10.008Z,98049.00
2023-08-15T17:26:11.310Z,98062.00
2023-08-15T17:30:13.369Z,98059.00
2023-08-15T17:34:14.424Z,98065.00
2023-08-15T17:38:15.621Z,98080.00
2023-08-15T17:42:17.280Z,98076.00
2023-08-15T17:46:18.531Z,98079.00
2023-08-15T17:50:19.772Z,98078.00
2023-08-15T17:54:20.982Z,98082.00
2023-08-15T17:58:22.352Z,98088.00
2023-08-15T18:02:23.718Z,98093.00
2023-08-15T18:06:25.020Z,98107.00
2023-08-15T18:10:26.352Z,98109.00
2023-08-15T18:14:30.897Z,98116.00
2023-08-15T18:18:32.106Z,98122.00
2023-08-15T18:22:33.265Z,98130.00
2023-08-15T18:26:34.514Z,98133.00
2023-08-15T18:30:35.624Z,98140.00
2023-08-15T18:34:37.236Z,98144.00
2023-08-15T18:38:39.139Z,98146.00
2023-08-15T18:42:40.154Z,98149.00
2023-08-15T18:46:42.798Z,98156.00
2023-08-15T18:50:44.444Z,98155.00
2023-08-15T18:54:45.497Z,98152.00
2023-08-15T18:58:46.714Z,98156.00
2023-08-15T19:02:48.174Z,98166.00
2023-08-15T19:06:49.243Z,98158.00
2023-08-15T19:10:50.276Z,98160.00
2023-08-15T19:14:51.345Z,98148.00
2023-08-15T19:18:52.388Z,98151.00
2023-08-15T19:22:53.849Z,98157.00
2023-08-15T19:26:55.084Z,98155.00
2023-08-15T19:30:56.534Z,98156.00
2023-08-15T19:34:57.625Z,98160.00
2023-08-15T19:38:58.875Z,98160.00
2023-08-15T19:43:00.061Z,98169.00
2023-08-15T19:47:01.569Z,98156.00
2023-08-15T19:51:02.963Z,98158.00
2023-08-15T19:55:04.805Z,98152.00
2023-08-15T19:59:05.778Z,98156.00
2023-08-15T20:03:07.195Z,98154.00
2023-08-15T20:07:08.420Z,98163.00
2023-08-15T20:11:09.446Z,98156.00
2023-08-15T20:15:11.122Z,98164.00
2023-08-15T20:19:12.293Z,98163.00
2023-08-15T20:23:13.323Z,98158.00
2023-08-15T20:27:15.206Z,98160.00
2023-08-15T20:31:17.064Z,98164.00
2023-08-15T20:35:18.264Z,98162.00
2023-08-15T20:39:19.941Z,98106.00
2023-08-15T20:43:20.995Z,98158.00
2023-08-15T20:47:22.087Z,98161.00
2023-08-15T20:51:23.459Z,98161.00
2023-08-15T20:55:24.611Z,98154.00
2023-08-15T20:59:25.680Z,98162.00
2023-08-15T21:03:26.680Z,98162.00
2023-08-15T21:07:28.294Z,98169.00
2023-08-15T21:11:29.287Z,98165.00
2023-08-15T21:15:30.339Z,98176.00
2023-08-15T21:19:31.403Z,98172.00
2023-08-15T21:23:33.466Z,98181.00
2023-08-15T21:27:34.837Z,98181.00
2023-08-15T21:31:35.826Z,98191.00
2023-08-15T21:35:36.989Z,98189.00
2023-08-15T21:39:37.958Z,98193.00
2023-08-15T21:43:39.226Z,98198.00
2023-08-15T21:47:40.306Z,98203.00
2023-08-15T21:51:41.488Z,98205.00
2023-08-15T21:55:42.513Z,98198.00
2023-08-15T21:59:43.841Z,98189.00
2023-08-15T22:03:44.915Z,98195.00
2023-08-15T22:07:46.080Z,98204.00
2023-08-15T22:11:47.344Z,98202.00
2023-08-15T22:15:48.374Z,98208.00
2023-08-15T22:19:49.383Z,98203.00
2023-08-15T22:23:50.619Z,98203.00
2023-08-15T22:27:51.648Z,98200.00
2023-08-15T22:31:53.247Z,98204.00
2023-08-15T22:35:54.525Z,98216.00
2023-08-15T22:39:55.927Z,98203.00
2023-08-15T22:43:56.997Z,98200.00
2023-08-15T22:47:58.136Z,98208.00
2023-08-15T22:51:59.084Z,98193.00
2023-08-15T22:56:00.995Z,98195.00
2023-08-15T23:00:02.593Z,98198.00
2023-08-15T23:04:04.105Z,98192.00
2023-08-15T23:08:05.541Z,98179.00
2023-08-15T23:12:07.592Z,98181.00
2023-08-15T23:16:08.680Z,98177.00
2023-08-15T23:20:11.074Z,98185.00
2023-08-15T23:24:13.239Z,98190.00
2023-08-15T23:28:14.302Z,98191.00
2023-08-15T23:32:15.505Z,98185.00
2023-08-15T23:36:16.710Z,98182.00
2023-08-15T23:40:18.334Z,98164.00
2023-08-15T23:44:19.648Z,98171.00
2023-08-15T23:48:20.826Z,98168.00
2023-08-15T23:52:22.020Z,98172.00
2023-08-15T23:56:24.991Z,98173.00
